createdAt,value
2018-09-27T00:01:35.889Z,60.00
2018-09-27T00:04:45.982Z,59.90
2018-09-27T00:07:48.961Z,59.80
2018-09-27T00:10:51.916Z,60.60
2018-09-27T00:13:54.882Z,60.20
2018-09-27T00:16:57.868Z,60.20
2018-09-27T00:20:00.831Z,59.70
2018-09-27T00:23:03.773Z,59.70
2018-09-27T00:26:07.443Z,59.00
2018-09-27T00:29:10.429Z,58.90
2018-09-27T00:32:13.393Z,59.20
2018-09-27T00:35:16.309Z,59.40
2018-09-27T00:38:19.208Z,59.20
2018-09-27T00:41:22.623Z,59.20
2018-09-27T00:44:25.561Z,59.00
2018-09-27T00:47:28.457Z,59.10
2018-09-27T00:50:31.428Z,59.30
2018-09-27T00:53:34.357Z,59.30
2018-09-27T00:56:37.290Z,59.10
2018-09-27T00:59:40.215Z,59.80
2018-09-27T01:02:43.181Z,60.00
2018-09-27T01:05:46.089Z,59.40
2018-09-27T01:08:49.041Z,59.90
2018-09-27T01:11:51.989Z,60.00
2018-09-27T01:14:54.984Z,59.70
2018-09-27T01:17:57.866Z,59.40
2018-09-27T01:21:00.756Z,59.70
2018-09-27T01:24:03.780Z,59.50
2018-09-27T01:27:06.705Z,59.90
2018-09-27T01:30:09.649Z,60.10
2018-09-27T01:33:12.537Z,59.80
2018-09-27T01:36:15.514Z,60.00
2018-09-27T01:39:18.469Z,60.50
2018-09-27T01:42:21.382Z,60.20
2018-09-27T01:45:24.317Z,60.00
2018-09-27T01:48:27.252Z,60.80
2018-09-27T01:51:30.095Z,61.10
2018-09-27T01:54:32.985Z,60.60
2018-09-27T01:57:35.929Z,60.50
2018-09-27T02:00:38.929Z,60.40
2018-09-27T02:03:41.996Z,61.00
2018-09-27T02:06:44.968Z,60.60
2018-09-27T02:09:47.909Z,60.20
2018-09-27T02:12:50.826Z,59.70
2018-09-27T02:15:53.793Z,60.20
2018-09-27T02:18:56.697Z,59.80
2018-09-27T02:21:59.668Z,60.40
2018-09-27T02:25:02.640Z,60.20
2018-09-27T02:28:05.858Z,60.50
2018-09-27T02:31:09.052Z,60.00
2018-09-27T02:34:11.985Z,60.40
2018-09-27T02:37:14.909Z,59.50
2018-09-27T02:40:17.850Z,59.80
2018-09-27T02:43:20.725Z,60.00
2018-09-27T02:46:23.679Z,59.80
2018-09-27T02:49:26.606Z,59.70
2018-09-27T02:52:29.513Z,59.80
2018-09-27T02:55:32.453Z,59.30
2018-09-27T02:58:35.397Z,59.70
2018-09-27T03:01:38.362Z,59.50
2018-09-27T03:04:41.313Z,60.00
2018-09-27T03:07:44.217Z,59.80
2018-09-27T03:10:47.105Z,59.70
2018-09-27T03:13:50.106Z,59.90
2018-09-27T03:16:52.998Z,60.30
2018-09-27T03:19:55.898Z,61.00
2018-09-27T03:22:58.822Z,60.30
2018-09-27T03:26:01.730Z,61.50
2018-09-27T03:29:05.576Z,61.20
2018-09-27T03:32:08.537Z,60.90
2018-09-27T03:35:11.406Z,61.30
2018-09-27T03:38:14.281Z,60.50
2018-09-27T03:41:17.258Z,61.10
2018-09-27T03:44:20.195Z,61.40
2018-09-27T03:47:23.114Z,60.30
2018-09-27T03:50:26.052Z,60.70
2018-09-27T03:53:29.008Z,60.90
2018-09-27T03:56:31.952Z,60.70
2018-09-27T03:59:34.857Z,61.40
2018-09-27T04:02:37.741Z,60.80
2018-09-27T04:05:40.610Z,60.90
2018-09-27T04:08:43.541Z,61.20
2018-09-27T04:11:46.449Z,61.60
2018-09-27T04:14:49.436Z,61.40
2018-09-27T04:17:52.366Z,62.20
2018-09-27T04:20:55.293Z,61.80
2018-09-27T04:23:58.239Z,62.00
2018-09-27T04:27:01.441Z,62.00
2018-09-27T04:30:05.813Z,62.20
2018-09-27T04:33:08.748Z,61.90
2018-09-27T04:36:11.701Z,62.30
2018-09-27T04:39:14.665Z,62.20
2018-09-27T04:42:17.628Z,62.30
2018-09-27T04:45:20.573Z,62.50
2018-09-27T04:48:23.494Z,62.50
2018-09-27T04:51:26.397Z,62.80
2018-09-27T04:54:29.327Z,62.80
2018-09-27T04:57:32.216Z,62.80
2018-09-27T05:00:35.126Z,62.50
2018-09-27T05:03:38.144Z,62.60
2018-09-27T05:06:41.058Z,63.00
2018-09-27T05:09:44.011Z,62.90
2018-09-27T05:12:46.914Z,63.10
2018-09-27T05:15:49.978Z,63.50
2018-09-27T05:18:52.917Z,63.70
2018-09-27T05:21:55.880Z,64.10
2018-09-27T05:24:58.810Z,63.60
2018-09-27T05:28:01.758Z,63.80
2018-09-27T05:31:04.671Z,63.80
2018-09-27T05:34:07.625Z,64.40
2018-09-27T05:37:10.543Z,64.30
2018-09-27T05:40:13.487Z,64.10
2018-09-27T05:43:16.403Z,64.10
2018-09-27T05:46:19.841Z,64.30
2018-09-27T05:49:23.403Z,64.20
2018-09-27T05:52:27.008Z,64.20
2018-09-27T05:55:30.001Z,64.40
2018-09-27T05:58:32.935Z,64.30
2018-09-27T06:01:36.440Z,64.70
2018-09-27T06:04:39.879Z,64.40
2018-09-27T06:07:42.820Z,64.20
2018-09-27T06:10:45.741Z,64.60
2018-09-27T06:13:48.662Z,64.60
2018-09-27T06:16:51.589Z,64.50
2018-09-27T06:19:54.609Z,64.50
2018-09-27T06:22:57.490Z,64.40
2018-09-27T06:26:00.449Z,64.80
2018-09-27T06:29:03.353Z,64.70
2018-09-27T06:32:06.405Z,64.80
2018-09-27T06:35:09.592Z,65.30
2018-09-27T06:38:12.486Z,65.50
2018-09-27T06:41:15.429Z,65.80
2018-09-27T06:44:18.314Z,66.10
2018-09-27T06:47:21.233Z,66.20
2018-09-27T06:50:25.223Z,66.20
2018-09-27T06:53:28.219Z,66.60
2018-09-27T06:56:31.191Z,66.80
2018-09-27T06:59:34.769Z,67.20
2018-09-27T07:02:37.742Z,66.60
2018-09-27T07:05:40.668Z,66.50
2018-09-27T07:08:43.643Z,66.70
2018-09-27T07:11:46.539Z,67.10
2018-09-27T07:14:49.441Z,66.70
2018-09-27T07:17:52.914Z,66.60
2018-09-27T07:20:55.842Z,66.30
2018-09-27T07:23:59.062Z,66.50
2018-09-27T07:27:02.685Z,66.50
2018-09-27T07:30:06.290Z,66.70
2018-09-27T07:33:09.828Z,67.00
2018-09-27T07:36:13.505Z,67.40
2018-09-27T07:39:17.128Z,67.60
2018-09-27T07:42:20.156Z,67.50
2018-09-27T07:45:23.115Z,67.60
2018-09-27T07:48:26.136Z,67.50
2018-09-27T07:51:29.050Z,67.50
2018-09-27T07:54:32.118Z,67.40
2018-09-27T07:57:35.605Z,67.40
2018-09-27T08:00:39.122Z,67.40
2018-09-27T08:03:42.807Z,67.50
2018-09-27T08:06:45.769Z,67.50
2018-09-27T08:09:48.724Z,67.60
2018-09-27T08:12:52.263Z,67.70
2018-09-27T08:15:56.085Z,67.80
2018-09-27T08:18:59.015Z,68.10
2018-09-27T08:22:02.105Z,68.00
2018-09-27T08:25:05.660Z,68.00
2018-09-27T08:28:09.252Z,67.70
2018-09-27T08:31:12.263Z,68.80
2018-09-27T08:34:15.136Z,67.70
2018-09-27T08:37:18.114Z,67.50
2018-09-27T08:40:21.053Z,60.80
2018-09-27T08:43:24.567Z,64.60
2018-09-27T08:46:27.511Z,61.60
2018-09-27T08:49:30.424Z,57.00
2018-09-27T08:52:33.388Z,53.20
2018-09-27T08:55:36.957Z,52.80
2018-09-27T08:58:39.812Z,56.20
2018-09-27T09:01:42.754Z,51.40
2018-09-27T09:04:46.270Z,51.80
2018-09-27T09:07:49.186Z,52.30
2018-09-27T09:10:52.118Z,52.50
2018-09-27T09:13:55.067Z,51.40
2018-09-27T09:16:58.034Z,50.10
2018-09-27T09:20:00.975Z,53.80
2018-09-27T09:23:03.995Z,50.80
2018-09-27T09:26:07.128Z,49.10
2018-09-27T09:29:10.190Z,47.40
2018-09-27T09:32:13.137Z,47.80
2018-09-27T09:35:16.061Z,49.00
2018-09-27T09:38:19.043Z,45.50
2018-09-27T09:41:21.919Z,46.30
2018-09-27T09:44:24.822Z,45.60
2018-09-27T09:47:27.848Z,46.20
2018-09-27T09:50:30.789Z,45.50
2018-09-27T09:53:33.729Z,44.30
2018-09-27T09:56:37.305Z,42.90
2018-09-27T09:59:40.210Z,45.20
2018-09-27T10:02:43.161Z,45.30
2018-09-27T10:05:46.133Z,44.10
2018-09-27T10:08:49.065Z,45.30
2018-09-27T10:11:52.571Z,43.80
2018-09-27T10:14:58.039Z,46.10
2018-09-27T10:18:01.058Z,41.60
2018-09-27T10:21:04.027Z,39.30
2018-09-27T10:24:07.019Z,37.60
2018-09-27T10:27:09.984Z,40.80
2018-09-27T10:30:13.369Z,38.90
2018-09-27T10:33:16.289Z,38.60
2018-09-27T10:36:19.198Z,39.10
2018-09-27T10:39:22.133Z,37.00
2018-09-27T10:42:25.069Z,39.50
2018-09-27T10:45:28.039Z,34.20
2018-09-27T10:48:30.981Z,38.60
2018-09-27T10:51:33.954Z,40.80
2018-09-27T10:54:36.938Z,37.40
2018-09-27T10:57:39.973Z,32.70
2018-09-27T11:00:42.886Z,37.50
2018-09-27T11:03:45.801Z,36.50
2018-09-27T11:06:48.719Z,34.00
2018-09-27T11:09:51.645Z,35.70
2018-09-27T11:12:54.612Z,34.40
2018-09-27T11:15:57.561Z,35.80
2018-09-27T11:19:00.538Z,33.40
2018-09-27T11:22:03.576Z,36.40
2018-09-27T11:25:06.591Z,34.60
2018-09-27T11:28:09.485Z,34.20
2018-09-27T11:31:18.172Z,35.40
2018-09-27T11:34:21.145Z,36.60
2018-09-27T11:37:24.184Z,33.90
2018-09-27T11:40:27.116Z,32.00
2018-09-27T11:43:30.039Z,33.70
2018-09-27T11:46:32.990Z,31.80
2018-09-27T11:49:36.126Z,31.70
2018-09-27T11:52:39.342Z,32.50
2018-09-27T11:55:42.249Z,39.00
2018-09-27T11:58:45.159Z,34.30
2018-09-27T12:01:48.094Z,34.10
2018-09-27T12:04:51.317Z,33.70
2018-09-27T12:07:54.270Z,32.30
2018-09-27T12:10:57.181Z,31.10
2018-09-27T12:14:00.100Z,32.90
2018-09-27T12:17:03.036Z,32.40
2018-09-27T12:20:06.076Z,33.00
2018-09-27T12:23:09.013Z,35.60
2018-09-27T12:26:11.967Z,33.50
2018-09-27T12:29:15.430Z,33.90
2018-09-27T12:32:18.404Z,32.20
2018-09-27T12:35:21.342Z,30.70
2018-09-27T12:38:24.389Z,30.90
2018-09-27T12:41:27.271Z,30.50
2018-09-27T12:44:30.194Z,30.60
2018-09-27T12:47:33.137Z,30.10
2018-09-27T12:50:36.730Z,31.40
2018-09-27T12:53:39.636Z,35.60
2018-09-27T12:56:42.644Z,30.90
2018-09-27T12:59:45.640Z,34.50
2018-09-27T13:02:48.672Z,33.00
2018-09-27T13:05:51.584Z,36.10
2018-09-27T13:08:54.542Z,32.40
2018-09-27T13:11:57.524Z,34.00
2018-09-27T13:15:00.479Z,34.90
2018-09-27T13:18:04.580Z,33.40
2018-09-27T13:21:07.849Z,39.80
2018-09-27T13:24:10.882Z,34.50
2018-09-27T13:27:15.299Z,33.80
2018-09-27T13:30:18.352Z,31.70
2018-09-27T13:33:21.593Z,35.90
2018-09-27T13:36:25.755Z,33.70
2018-09-27T13:39:28.948Z,33.70
2018-09-27T13:42:32.107Z,37.20
2018-09-27T13:45:35.520Z,35.60
2018-09-27T13:48:38.853Z,36.40
2018-09-27T13:51:42.259Z,35.40
2018-09-27T13:54:45.621Z,32.40
2018-09-27T13:57:49.132Z,32.50
2018-09-27T14:00:52.879Z,35.10
2018-09-27T14:03:56.047Z,35.80
2018-09-27T14:06:59.092Z,33.10
2018-09-27T14:10:02.277Z,38.00
2018-09-27T14:13:05.593Z,34.00
2018-09-27T14:16:08.975Z,33.60
2018-09-27T14:19:12.483Z,37.40
2018-09-27T14:22:15.693Z,33.40
2018-09-27T14:25:19.219Z,33.40
2018-09-27T14:28:22.190Z,34.50
2018-09-27T14:31:25.527Z,31.10
2018-09-27T14:34:28.454Z,36.80
2018-09-27T14:37:31.648Z,35.70
2018-09-27T14:40:35.026Z,32.80
2018-09-27T14:43:38.225Z,34.00
2018-09-27T14:46:41.383Z,35.40
2018-09-27T14:49:44.604Z,34.40
2018-09-27T14:52:47.718Z,33.90
2018-09-27T14:55:50.821Z,31.20
2018-09-27T14:58:54.204Z,32.90
2018-09-27T15:01:57.645Z,36.60
2018-09-27T15:05:00.607Z,32.30
2018-09-27T15:08:04.098Z,34.60
2018-09-27T15:11:07.335Z,34.00
2018-09-27T15:14:10.289Z,32.50
2018-09-27T15:17:13.392Z,34.60
2018-09-27T15:20:16.321Z,34.60
2018-09-27T15:23:19.554Z,39.00
2018-09-27T15:26:22.837Z,37.30
2018-09-27T15:29:26.053Z,36.60
2018-09-27T15:32:29.329Z,40.30
2018-09-27T15:35:32.249Z,42.20
2018-09-27T15:38:35.493Z,46.30
2018-09-27T15:41:38.496Z,44.80
2018-09-27T15:44:41.684Z,46.30
2018-09-27T15:47:44.757Z,46.40
2018-09-27T15:50:48.128Z,46.70
2018-09-27T15:53:51.185Z,46.70
2018-09-27T15:56:54.396Z,47.80
2018-09-27T15:59:57.454Z,48.00
2018-09-27T16:03:00.601Z,47.60
2018-09-27T16:06:04.222Z,49.60
2018-09-27T16:09:09.540Z,48.70
2018-09-27T16:12:12.490Z,49.80
2018-09-27T16:15:15.523Z,50.00
2018-09-27T16:18:19.661Z,52.50
2018-09-27T16:21:22.971Z,52.50
2018-09-27T16:24:29.366Z,53.00
2018-09-27T16:27:32.637Z,53.10
2018-09-27T16:30:35.549Z,52.70
2018-09-27T16:33:38.757Z,53.10
2018-09-27T16:36:41.783Z,54.80
2018-09-27T16:39:44.980Z,55.20
2018-09-27T16:42:48.219Z,55.50
2018-09-27T16:45:51.398Z,55.50
2018-09-27T16:48:54.565Z,55.30
2018-09-27T16:51:57.966Z,55.40
2018-09-27T16:55:01.389Z,55.80
2018-09-27T16:58:04.503Z,55.90
2018-09-27T17:01:07.954Z,55.30
2018-09-27T17:04:10.941Z,55.20
2018-09-27T17:07:14.100Z,55.30
2018-09-27T17:10:17.043Z,55.30
2018-09-27T17:13:20.316Z,55.60
2018-09-27T17:16:23.722Z,55.20
2018-09-27T17:19:27.541Z,55.00
2018-09-27T17:22:30.698Z,54.70
2018-09-27T17:25:34.597Z,55.40
2018-09-27T17:28:38.002Z,54.60
2018-09-27T17:31:40.982Z,54.30
2018-09-27T17:34:44.146Z,54.30
2018-09-27T17:37:47.721Z,54.20
2018-09-27T17:40:50.901Z,54.20
2018-09-27T17:43:53.971Z,54.00
2018-09-27T17:46:57.239Z,53.80
2018-09-27T17:50:00.500Z,53.80
2018-09-27T17:53:03.800Z,53.70
2018-09-27T17:56:07.810Z,53.20
2018-09-27T17:59:11.075Z,53.30
2018-09-27T18:02:14.906Z,53.40
2018-09-27T18:05:20.615Z,53.60
2018-09-27T18:08:24.065Z,53.40
2018-09-27T18:11:27.142Z,53.50
2018-09-27T18:14:30.522Z,53.80
2018-09-27T18:17:33.677Z,53.80
2018-09-27T18:20:37.916Z,53.90
2018-09-27T18:23:41.410Z,53.80
2018-09-27T18:26:44.945Z,54.00
2018-09-27T18:29:48.204Z,54.00
2018-09-27T18:32:51.240Z,53.80
2018-09-27T18:35:54.456Z,53.80
2018-09-27T18:38:57.707Z,53.80
2018-09-27T18:42:01.493Z,53.60
2018-09-27T18:45:05.342Z,53.80
2018-09-27T18:48:10.741Z,53.70
2018-09-27T18:51:14.897Z,54.00
2018-09-27T18:54:17.904Z,53.90
2018-09-27T18:57:21.119Z,54.00
2018-09-27T19:00:24.092Z,54.20
2018-09-27T19:03:27.382Z,54.40
2018-09-27T19:06:31.330Z,54.40
2018-09-27T19:09:34.716Z,54.90
2018-09-27T19:12:38.570Z,54.20
2018-09-27T19:15:41.685Z,54.00
2018-09-27T19:18:45.437Z,54.30
2018-09-27T19:21:51.277Z,54.40
2018-09-27T19:24:55.576Z,54.50
2018-09-27T19:28:00.774Z,54.60
2018-09-27T19:31:04.838Z,54.60
2018-09-27T19:34:09.379Z,54.40
2018-09-27T19:37:12.803Z,54.50
2018-09-27T19:40:15.983Z,54.50
2018-09-27T19:43:19.213Z,54.50
2018-09-27T19:46:22.585Z,54.10
2018-09-27T19:49:26.028Z,54.40
2018-09-27T19:52:29.757Z,54.30
2018-09-27T19:55:33.164Z,54.10
2018-09-27T19:58:36.684Z,54.40
2018-09-27T20:01:40.075Z,54.10
2018-09-27T20:04:43.864Z,54.50
2018-09-27T20:07:48.155Z,54.70
2018-09-27T20:10:51.583Z,55.00
2018-09-27T20:13:55.138Z,55.00
2018-09-27T20:16:58.777Z,54.70
2018-09-27T20:20:02.049Z,54.10
2018-09-27T20:23:05.467Z,54.30
2018-09-27T20:26:09.804Z,54.50
2018-09-27T20:29:14.330Z,54.50
2018-09-27T20:32:17.840Z,54.80
2018-09-27T20:35:20.976Z,55.10
2018-09-27T20:38:24.726Z,55.60
2018-09-27T20:41:28.449Z,55.50
2018-09-27T20:44:31.762Z,55.80
2018-09-27T20:47:36.147Z,55.90
2018-09-27T20:50:39.543Z,55.40
2018-09-27T20:53:42.645Z,56.20
2018-09-27T20:56:45.623Z,56.30
2018-09-27T20:59:48.607Z,56.20
2018-09-27T21:02:51.588Z,56.90
2018-09-27T21:05:55.237Z,56.80
2018-09-27T21:08:58.700Z,57.10
2018-09-27T21:12:01.713Z,57.00
2018-09-27T21:15:04.690Z,56.90
2018-09-27T21:18:07.623Z,56.90
2018-09-27T21:21:10.569Z,57.30
2018-09-27T21:24:13.701Z,58.00
2018-09-27T21:27:17.529Z,58.10
2018-09-27T21:30:20.449Z,57.80
2018-09-27T21:33:23.357Z,57.80
2018-09-27T21:36:26.333Z,57.80
2018-09-27T21:39:29.289Z,58.50
2018-09-27T21:42:32.251Z,58.60
2018-09-27T21:45:35.160Z,58.50
2018-09-27T21:48:38.204Z,58.40
2018-09-27T21:51:41.125Z,59.50
2018-09-27T21:54:44.058Z,59.40
2018-09-27T21:57:46.974Z,58.80
2018-09-27T22:00:51.885Z,58.90
2018-09-27T22:03:54.788Z,59.00
2018-09-27T22:06:57.722Z,59.30
2018-09-27T22:10:00.746Z,59.70
2018-09-27T22:13:03.694Z,60.30
2018-09-27T22:16:06.985Z,59.90
2018-09-27T22:19:09.910Z,60.00
2018-09-27T22:22:12.823Z,60.00
2018-09-27T22:25:15.753Z,60.00
2018-09-27T22:28:18.716Z,59.60
2018-09-27T22:31:21.752Z,60.20
2018-09-27T22:34:24.716Z,60.30
2018-09-27T22:37:27.637Z,60.40
2018-09-27T22:40:30.549Z,60.40
2018-09-27T22:43:33.480Z,60.70
2018-09-27T22:46:36.440Z,60.80
2018-09-27T22:49:39.318Z,60.70
2018-09-27T22:52:42.223Z,60.20
2018-09-27T22:55:45.109Z,59.80
2018-09-27T22:58:47.982Z,60.40
2018-09-27T23:01:50.925Z,60.40
2018-09-27T23:04:53.830Z,60.00
2018-09-27T23:07:56.752Z,60.00
2018-09-27T23:10:59.688Z,59.50
2018-09-27T23:14:03.761Z,59.70
2018-09-27T23:17:06.682Z,59.20
2018-09-27T23:20:10.248Z,59.70
2018-09-27T23:23:13.217Z,59.90
2018-09-27T23:26:16.082Z,59.40
2018-09-27T23:29:19.000Z,59.50
2018-09-27T23:32:21.941Z,59.50
2018-09-27T23:35:24.913Z,59.20
2018-09-27T23:38:27.844Z,59.40
2018-09-27T23:41:30.733Z,59.50
2018-09-27T23:44:33.703Z,59.40
2018-09-27T23:47:36.611Z,59.60
2018-09-27T23:50:39.538Z,59.50
2018-09-27T23:53:42.456Z,59.80
2018-09-27T23:56:45.393Z,59.10
2018-09-27T23:59:48.372Z,59.60
